Time;durP1;ratioP1;P1;durP2;ratioP2;P2;SDS_P1;SDS_P2;PMS_P1;PMS_P2;Temp;Humidity;BMP_temperature;BMP_pressure;BME280_temperature;BME280_humidity;BME280_pressure;Samples;Min_cycle;Max_cycle;Signal;HPM_P1;HPM_P2
2022/07/07 00:00:57;;;;;;;7.40;2.53;;;16.70;99.90;;;;;;5071064;28;20072;-62
2022/07/07 00:03:23;;;;;;;7.28;3.03;;;17.00;99.90;;;;;;5071009;28;20076;-62
2022/07/07 00:05:49;;;;;;;9.15;3.13;;;17.20;99.90;;;;;;5071337;28;20044;-62
2022/07/07 00:08:14;;;;;;;8.55;2.90;;;16.90;99.90;;;;;;5071522;28;20077;-62
2022/07/07 00:10:40;;;;;;;11.70;3.78;;;16.90;99.90;;;;;;5052823;28;20044;-63
2022/07/07 00:13:06;;;;;;;6.97;3.05;;;16.50;99.90;;;;;;5070998;28;20036;-62
2022/07/07 00:15:32;;;;;;;9.65;3.15;;;16.70;99.90;;;;;;5053741;28;20040;-62
2022/07/07 00:17:57;;;;;;;7.18;3.22;;;16.30;99.90;;;;;;5072416;28;20048;-62
2022/07/07 00:20:23;;;;;;;11.30;3.53;;;16.60;99.90;;;;;;5073775;28;20053;-62
2022/07/07 00:22:49;;;;;;;9.85;3.15;;;16.30;99.90;;;;;;5073427;28;20057;-62
2022/07/07 00:25:15;;;;;;;12.07;3.88;;;16.50;99.90;;;;;;5072773;28;20049;-62
2022/07/07 00:27:41;;;;;;;7.40;2.75;;;16.40;99.90;;;;;;5073707;28;20040;-62
2022/07/07 00:30:07;;;;;;;7.65;3.17;;;15.90;99.90;;;;;;5074209;28;20098;-61
2022/07/07 00:32:33;;;;;;;7.75;4.03;;;16.30;99.90;;;;;;5074156;28;20052;-62
2022/07/07 00:34:58;;;;;;;11.23;3.80;;;16.70;99.90;;;;;;5074306;28;20037;-61
2022/07/07 00:37:24;;;;;;;10.35;3.30;;;16.20;99.90;;;;;;5073620;28;20057;-62
2022/07/07 00:39:50;;;;;;;7.00;3.80;;;16.10;99.90;;;;;;5072467;28;20059;-62
2022/07/07 00:42:16;;;;;;;7.32;3.80;;;16.30;99.90;;;;;;5074467;28;20516;-61
2022/07/07 00:44:42;;;;;;;9.25;4.00;;;16.20;99.90;;;;;;5073893;28;20110;-62
2022/07/07 00:47:09;;;;;;;10.63;4.35;;;16.20;99.90;;;;;;5074511;28;20385;-62
2022/07/07 00:49:35;;;;;;;10.05;4.40;;;16.20;99.90;;;;;;5073701;28;20051;-61
2022/07/07 00:52:01;;;;;;;9.95;4.07;;;16.20;99.90;;;;;;5073115;28;20050;-61
2022/07/07 00:54:26;;;;;;;10.95;3.97;;;16.20;99.90;;;;;;5073426;28;20033;-61
2022/07/07 00:56:52;;;;;;;12.00;4.32;;;16.20;99.90;;;;;;5056388;28;20054;-62
2022/07/07 00:59:18;;;;;;;9.85;3.70;;;16.20;99.90;;;;;;5055762;28;20086;-62
2022/07/07 01:01:44;;;;;;;12.38;4.82;;;16.20;99.90;;;;;;5073028;28;20048;-62
2022/07/07 01:04:12;;;;;;;10.20;4.25;;;16.20;99.90;;;;;;5074110;28;20043;-62
2022/07/07 01:06:40;;;;;;;10.52;3.80;;;16.20;99.90;;;;;;5072225;28;20041;-62
2022/07/07 01:09:06;;;;;;;14.52;4.60;;;16.20;99.90;;;;;;5072371;28;20051;-62
2022/07/07 01:11:48;;;;;;;12.18;4.20;;;16.20;99.90;;;;;;5074090;28;20466;-62
2022/07/07 01:14:14;;;;;;;8.52;3.83;;;16.20;99.90;;;;;;5073251;28;20044;-62
2022/07/07 01:16:40;;;;;;;9.38;3.80;;;16.20;99.90;;;;;;5074127;28;20086;-62
2022/07/07 01:19:06;;;;;;;10.70;4.45;;;16.20;99.90;;;;;;5072177;28;20428;-62
2022/07/07 01:21:38;;;;;;;10.90;4.28;;;16.30;99.90;;;;;;5073085;28;20056;-62
2022/07/07 01:24:04;;;;;;;10.30;3.58;;;16.30;99.90;;;;;;5073442;28;20072;-63
2022/07/07 01:26:31;;;;;;;9.02;3.55;;;16.30;99.90;;;;;;5055878;28;20044;-62
2022/07/07 01:28:57;;;;;;;12.48;4.18;;;16.30;99.90;;;;;;5070471;28;20048;-62
2022/07/07 01:31:22;;;;;;;17.65;4.60;;;16.30;99.90;;;;;;5072393;28;20048;-62
2022/07/07 01:33:48;;;;;;;11.38;4.13;;;16.30;99.90;;;;;;5055552;28;20040;-61
2022/07/07 01:36:14;;;;;;;10.52;3.72;;;16.30;99.90;;;;;;5071419;28;20045;-62
2022/07/07 01:38:39;;;;;;;16.33;3.88;;;16.30;99.90;;;;;;5073580;28;20036;-62
2022/07/07 01:41:05;;;;;;;10.80;3.03;;;16.30;99.90;;;;;;5070914;28;20194;-62
2022/07/07 01:43:30;;;;;;;10.65;3.22;;;16.30;99.90;;;;;;5072307;28;20115;-62
2022/07/07 01:45:57;;;;;;;12.93;3.33;;;16.30;99.90;;;;;;5072901;28;20042;-62
2022/07/07 01:48:23;;;;;;;10.80;3.03;;;16.30;99.90;;;;;;5071519;28;20045;-62
2022/07/07 01:50:49;;;;;;;10.63;2.67;;;16.20;99.90;;;;;;5073082;28;20371;-62
2022/07/07 01:53:15;;;;;;;7.70;2.20;;;16.20;99.90;;;;;;5072933;28;20039;-62
2022/07/07 01:55:41;;;;;;;10.55;2.58;;;16.20;99.90;;;;;;5071292;28;20098;-62
2022/07/07 01:58:06;;;;;;;8.05;2.38;;;16.20;99.90;;;;;;5071489;28;20036;-62
2022/07/07 02:00:32;;;;;;;5.47;2.30;;;16.20;99.90;;;;;;5071758;28;20044;-62
2022/07/07 02:02:58;;;;;;;11.02;2.80;;;16.10;99.90;;;;;;5070670;28;20047;-62
2022/07/07 02:05:24;;;;;;;6.55;2.40;;;16.10;99.90;;;;;;5073071;28;20405;-62
2022/07/07 02:07:49;;;;;;;10.23;3.20;;;16.10;99.90;;;;;;5071552;28;20076;-61
2022/07/07 02:11:12;;;;;;;9.10;2.72;;;16.10;99.90;;;;;;5070531;28;20127;-62
2022/07/07 02:13:04;;;;;;;13.27;2.80;;;16.10;99.90;;;;;;5071213;28;20072;-61
2022/07/07 02:15:31;;;;;;;14.00;3.78;;;16.10;99.90;;;;;;5072916;28;20036;-62
2022/07/07 02:17:57;;;;;;;9.45;3.08;;;16.00;99.90;;;;;;5070186;28;20044;-62
2022/07/07 02:20:22;;;;;;;9.65;3.38;;;16.00;99.90;;;;;;5072752;28;20040;-62
2022/07/07 02:22:48;;;;;;;15.95;3.58;;;16.00;99.90;;;;;;5071046;28;20052;-62
2022/07/07 02:25:13;;;;;;;7.63;2.78;;;16.00;99.90;;;;;;5071794;28;20040;-61
2022/07/07 02:27:39;;;;;;;8.73;2.97;;;16.10;99.90;;;;;;5072678;28;20040;-62
2022/07/07 02:30:06;;;;;;;11.18;3.67;;;16.60;99.90;;;;;;5070710;28;20047;-61
2022/07/07 02:32:32;;;;;;;10.98;4.03;;;16.10;99.90;;;;;;5054315;28;20366;-61
2022/07/07 02:34:58;;;;;;;12.00;4.22;;;16.10;99.90;;;;;;5070954;28;20037;-62
2022/07/07 02:37:25;;;;;;;9.65;3.38;;;16.10;99.90;;;;;;5071954;28;20044;-61
2022/07/07 02:39:51;;;;;;;10.85;3.00;;;16.10;99.90;;;;;;5072204;28;20044;-61
2022/07/07 02:42:17;;;;;;;14.48;3.80;;;16.10;99.90;;;;;;5070957;28;20481;-62
2022/07/07 02:44:42;;;;;;;10.90;3.30;;;16.10;99.90;;;;;;5071359;28;20047;-62
2022/07/07 02:47:08;;;;;;;11.75;4.50;;;16.10;99.90;;;;;;5072115;28;20532;-62
2022/07/07 02:49:34;;;;;;;10.55;3.38;;;16.10;99.90;;;;;;5070935;28;20067;-61
2022/07/07 02:52:00;;;;;;;11.45;3.88;;;16.10;99.90;;;;;;5070930;28;20084;-62
2022/07/07 02:54:25;;;;;;;10.73;2.88;;;16.10;99.90;;;;;;5072526;28;20036;-62
2022/07/07 02:56:51;;;;;;;12.75;3.30;;;16.10;99.90;;;;;;5072144;28;20034;-62
2022/07/07 02:59:17;;;;;;;10.48;2.78;;;16.10;99.90;;;;;;5069912;28;20124;-63
2022/07/07 03:01:42;;;;;;;9.75;2.70;;;16.10;99.90;;;;;;5071146;28;20135;-62
2022/07/07 03:04:08;;;;;;;13.80;3.08;;;16.10;99.90;;;;;;5071855;28;20037;-62
2022/07/07 03:06:34;;;;;;;10.45;2.50;;;16.40;99.90;;;;;;5070143;28;20041;-62
2022/07/07 03:08:59;;;;;;;10.27;3.33;;;16.10;99.90;;;;;;5053662;28;20036;-63
2022/07/07 03:11:25;;;;;;;10.35;1.88;;;15.90;99.90;;;;;;5070870;28;20132;-63
2022/07/07 03:13:51;;;;;;;11.30;2.25;;;16.20;99.90;;;;;;5071049;28;20111;-62
2022/07/07 03:16:16;;;;;;;9.40;1.83;;;16.00;99.90;;;;;;5071933;28;20032;-62
2022/07/07 03:18:43;;;;;;;11.15;2.13;;;;;;;;;;5071885;28;20082;-62
2022/07/07 03:21:09;;;;;;;8.07;1.75;;;16.10;99.90;;;;;;5070672;28;20056;-62
2022/07/07 03:23:34;;;;;;;4.53;1.20;;;16.10;99.90;;;;;;5054284;28;20051;-62
2022/07/07 03:26:00;;;;;;;5.38;1.65;;;15.80;99.90;;;;;;5053551;28;20529;-62
2022/07/07 03:28:26;;;;;;;4.20;1.02;;;16.00;99.90;;;;;;5071195;28;20048;-64
2022/07/07 03:30:51;;;;;;;5.10;1.48;;;15.70;99.90;;;;;;5071728;28;20037;-63
2022/07/07 03:33:17;;;;;;;4.45;1.52;;;15.30;99.90;;;;;;5070712;28;20067;-63
2022/07/07 03:35:43;;;;;;;6.60;1.40;;;;;;;;;;5070797;28;20481;-62
2022/07/07 03:38:08;;;;;;;7.55;1.75;;;15.30;99.90;;;;;;5071871;28;20044;-63
2022/07/07 03:40:34;;;;;;;7.32;2.08;;;15.30;99.90;;;;;;5069928;28;20039;-62
2022/07/07 03:43:00;;;;;;;6.00;1.58;;;15.30;99.90;;;;;;5053339;28;20047;-62
2022/07/07 03:45:25;;;;;;;8.20;1.60;;;15.30;99.90;;;;;;5071807;28;20063;-63
2022/07/07 03:47:51;;;;;;;5.05;1.50;;;15.30;99.90;;;;;;5070724;28;20102;-62
2022/07/07 03:50:17;;;;;;;12.38;2.97;;;15.30;99.90;;;;;;5070214;28;20036;-62
2022/07/07 03:52:42;;;;;;;7.40;2.30;;;15.60;99.90;;;;;;5075313;28;20037;-62
2022/07/07 03:55:08;;;;;;;7.82;1.95;;;15.60;99.90;;;;;;5073231;28;20036;-62
2022/07/07 03:57:34;;;;;;;7.78;1.80;;;15.30;99.90;;;;;;5074458;28;20040;-63
2022/07/07 04:00:00;;;;;;;7.57;1.85;;;15.30;99.90;;;;;;5074960;28;20040;-63
2022/07/07 04:02:26;;;;;;;7.80;1.45;;;15.30;99.90;;;;;;5073442;28;20128;-62
2022/07/07 04:04:52;;;;;;;7.28;1.77;;;15.30;99.90;;;;;;5073900;28;20142;-62
2022/07/07 04:07:18;;;;;;;6.45;1.48;;;15.30;99.90;;;;;;5075289;28;20515;-63
2022/07/07 04:09:43;;;;;;;7.07;1.35;;;15.30;99.90;;;;;;5073193;28;20036;-62
2022/07/07 04:12:09;;;;;;;7.82;1.55;;;15.60;99.90;;;;;;5073844;28;20494;-63
2022/07/07 04:14:35;;;;;;;8.00;1.92;;;15.30;99.90;;;;;;5073963;28;20477;-63
2022/07/07 04:17:00;;;;;;;6.45;2.05;;;15.40;99.90;;;;;;5073848;28;20055;-63
2022/07/07 04:19:26;;;;;;;8.65;1.73;;;15.30;99.90;;;;;;5075000;28;20499;-62
2022/07/07 04:21:52;;;;;;;19.02;3.28;;;15.40;99.90;;;;;;5074601;28;20056;-62
2022/07/07 04:24:17;;;;;;;4.45;1.40;;;15.40;99.90;;;;;;5074353;28;20084;-62
2022/07/07 04:26:43;;;;;;;9.45;2.05;;;15.40;99.90;;;;;;5073467;28;20044;-62
2022/07/07 04:29:09;;;;;;;12.25;2.50;;;15.70;99.90;;;;;;5073458;28;20044;-62
2022/07/07 04:31:34;;;;;;;7.47;2.20;;;15.30;99.90;;;;;;5072724;28;20049;-62
2022/07/07 04:34:00;;;;;;;7.55;1.77;;;15.80;99.90;;;;;;5074190;28;20040;-62
2022/07/07 04:36:26;;;;;;;10.07;2.53;;;15.10;99.90;;;;;;5075032;28;20040;-62
2022/07/07 04:38:51;;;;;;;16.23;2.90;;;15.10;99.90;;;;;;5073831;28;20097;-62
2022/07/07 04:41:17;;;;;;;12.32;2.63;;;15.00;99.90;;;;;;5073224;28;20052;-62
2022/07/07 04:43:43;;;;;;;8.45;2.50;;;15.10;99.90;;;;;;5074510;28;20040;-62
2022/07/07 04:46:08;;;;;;;11.07;2.92;;;15.10;99.90;;;;;;5073654;28;20405;-61
2022/07/07 04:48:34;;;;;;;8.77;2.22;;;15.20;99.90;;;;;;5074419;28;20116;-62
2022/07/07 04:51:00;;;;;;;11.73;2.63;;;15.20;99.90;;;;;;5071989;28;20044;-61
2022/07/07 04:53:25;;;;;;;9.90;2.92;;;15.20;99.90;;;;;;5073230;28;20044;-61
2022/07/07 04:55:51;;;;;;;10.70;2.40;;;15.30;99.90;;;;;;5073059;28;20044;-61
2022/07/07 04:58:16;;;;;;;12.02;2.58;;;15.40;99.90;;;;;;5072036;28;20037;-61
2022/07/07 05:00:42;;;;;;;11.00;3.30;;;15.50;99.90;;;;;;5073418;28;20068;-61
2022/07/07 05:03:08;;;;;;;13.90;2.47;;;15.60;99.90;;;;;;5072768;28;20382;-61
2022/07/07 05:05:33;;;;;;;8.75;2.30;;;15.60;99.90;;;;;;5073835;28;20040;-62
2022/07/07 05:07:59;;;;;;;7.32;2.40;;;15.70;99.90;;;;;;5072370;28;20119;-62
2022/07/07 05:10:25;;;;;;;11.70;2.72;;;15.80;99.90;;;;;;5072806;28;20386;-62
2022/07/07 05:12:50;;;;;;;9.18;2.25;;;15.70;99.90;;;;;;5072135;28;20041;-62
2022/07/07 05:15:16;;;;;;;6.60;2.33;;;15.70;99.90;;;;;;5072875;28;20392;-63
2022/07/07 05:17:42;;;;;;;8.60;1.95;;;15.60;99.90;;;;;;5073893;28;20037;-63
2022/07/07 05:20:08;;;;;;;7.80;1.85;;;16.30;99.90;;;;;;5073196;28;20115;-63
2022/07/07 05:22:33;;;;;;;7.53;1.90;;;15.60;99.90;;;;;;5073901;28;20061;-63
2022/07/07 05:24:59;;;;;;;9.45;2.38;;;15.70;99.90;;;;;;5072391;28;20052;-62
2022/07/07 05:27:25;;;;;;;6.25;2.20;;;15.60;99.90;;;;;;5073491;28;20500;-63
2022/07/07 05:29:50;;;;;;;6.47;2.08;;;15.80;99.90;;;;;;5072624;28;20056;-62
2022/07/07 05:32:16;;;;;;;8.60;2.15;;;15.90;99.90;;;;;;5072222;28;20512;-64
2022/07/07 05:34:42;;;;;;;8.40;2.15;;;16.00;99.90;;;;;;5055359;28;20512;-63
2022/07/07 05:37:07;;;;;;;6.82;1.77;;;17.00;99.90;;;;;;5055702;28;20547;-64
2022/07/07 05:39:33;;;;;;;6.85;1.88;;;16.00;99.90;;;;;;5073593;28;20033;-64
2022/07/07 05:41:58;;;;;;;7.88;2.45;;;16.00;99.90;;;;;;5071028;28;20570;-64
2022/07/07 05:44:24;;;;;;;7.05;2.13;;;16.00;99.90;;;;;;5073515;28;20042;-64
2022/07/07 05:46:50;;;;;;;8.07;1.77;;;16.00;99.90;;;;;;5071841;28;20040;-63
2022/07/07 05:49:15;;;;;;;7.82;2.67;;;15.90;99.90;;;;;;5054490;28;20131;-64
2022/07/07 05:51:41;;;;;;;7.75;1.95;;;15.90;99.90;;;;;;5072048;28;20396;-64
2022/07/07 05:54:07;;;;;;;7.55;2.00;;;15.90;99.90;;;;;;5072272;28;20033;-62
2022/07/07 05:56:32;;;;;;;10.23;2.08;;;15.90;99.90;;;;;;5072099;28;20039;-63
2022/07/07 05:58:58;;;;;;;14.57;2.30;;;15.90;99.90;;;;;;5072775;28;20029;-63
2022/07/07 06:01:23;;;;;;;9.00;2.35;;;15.90;99.90;;;;;;5071163;28;20101;-62
2022/07/07 06:03:49;;;;;;;10.45;1.73;;;15.90;99.90;;;;;;5073008;28;20048;-62
2022/07/07 06:06:15;;;;;;;6.70;1.60;;;15.90;99.90;;;;;;5071545;28;20040;-62
2022/07/07 06:08:40;;;;;;;4.05;1.15;;;15.90;99.90;;;;;;5071215;28;20040;-62
2022/07/07 06:11:06;;;;;;;8.32;2.13;;;16.20;99.90;;;;;;5071224;28;20498;-63
2022/07/07 06:13:31;;;;;;;5.72;1.27;;;15.80;99.90;;;;;;5072557;28;20047;-62
2022/07/07 06:15:57;;;;;;;8.27;1.73;;;15.70;99.90;;;;;;5070364;28;20036;-61
2022/07/07 06:18:23;;;;;;;6.72;1.73;;;15.40;99.90;;;;;;5070793;28;20063;-61
2022/07/07 06:20:49;;;;;;;4.80;1.60;;;15.90;99.90;;;;;;5052296;28;20125;-63
2022/07/07 06:23:15;;;;;;;6.07;1.73;;;15.80;99.90;;;;;;5063171;28;20085;-62
2022/07/07 06:25:42;;;;;;;6.95;1.30;;;16.20;99.90;;;;;;5071487;28;20485;-63
2022/07/07 06:28:08;;;;;;;6.20;1.20;;;16.10;99.90;;;;;;5053066;28;20057;-63
2022/07/07 06:30:33;;;;;;;6.25;1.20;;;15.80;99.90;;;;;;5051844;28;20583;-62
2022/07/07 06:32:59;;;;;;;5.82;0.80;;;16.40;99.90;;;;;;5063117;28;20047;-61
2022/07/07 06:35:26;;;;;;;4.82;0.95;;;16.20;99.90;;;;;;5071017;28;20040;-62
2022/07/07 06:37:52;;;;;;;4.78;0.95;;;15.70;99.90;;;;;;5068554;28;20044;-62
2022/07/07 06:40:18;;;;;;;5.95;1.13;;;16.40;99.90;;;;;;5071201;28;20490;-62
2022/07/07 06:42:44;;;;;;;6.97;1.17;;;16.10;99.90;;;;;;5053410;28;20124;-62
2022/07/07 06:45:10;;;;;;;3.85;1.15;;;16.20;99.90;;;;;;5069604;28;20118;-63
2022/07/07 06:47:36;;;;;;;4.25;1.52;;;;;;;;;;5063315;28;20129;-62
2022/07/07 06:50:02;;;;;;;5.80;1.20;;;16.20;99.90;;;;;;5052701;28;20045;-62
2022/07/07 06:52:27;;;;;;;5.28;1.40;;;15.90;99.90;;;;;;5033541;28;20037;-62
2022/07/07 06:54:53;;;;;;;9.57;1.85;;;16.30;99.90;;;;;;5068406;28;20037;-62
2022/07/07 06:57:19;;;;;;;4.38;1.13;;;15.90;99.90;;;;;;5059684;28;20045;-62
2022/07/07 06:59:44;;;;;;;6.38;1.48;;;16.00;99.90;;;;;;5047389;28;20123;-62
2022/07/07 07:02:10;;;;;;;7.30;2.88;;;15.70;99.90;;;;;;5048263;28;20080;-62
2022/07/07 07:04:36;;;;;;;9.20;2.88;;;15.90;99.90;;;;;;5042265;28;20048;-62
2022/07/07 07:07:01;;;;;;;15.88;10.50;;;15.50;99.90;;;;;;5047774;28;20118;-62
2022/07/07 07:09:27;;;;;;;18.70;15.70;;;15.90;99.90;;;;;;5049203;28;20115;-62
2022/07/07 07:11:54;;;;;;;7.53;4.32;;;15.60;99.90;;;;;;5048073;28;20119;-61
2022/07/07 07:14:20;;;;;;;8.63;2.35;;;16.00;99.90;;;;;;5048390;28;20079;-62
2022/07/07 07:16:46;;;;;;;8.55;3.38;;;16.00;99.90;;;;;;5050862;28;20049;-62
2022/07/07 07:19:11;;;;;;;6.15;3.38;;;16.40;99.90;;;;;;5063629;28;20124;-62
2022/07/07 07:21:37;;;;;;;3.67;1.83;;;16.40;99.90;;;;;;5049226;28;20053;-62
2022/07/07 07:24:03;;;;;;;5.60;1.95;;;16.50;99.90;;;;;;5049773;28;20057;-61
2022/07/07 07:26:29;;;;;;;6.28;1.88;;;16.70;99.90;;;;;;5048082;28;20044;-61
2022/07/07 07:28:55;;;;;;;9.45;1.80;;;16.30;99.90;;;;;;5051583;28;20049;-61
2022/07/07 07:31:20;;;;;;;7.35;1.52;;;16.60;99.90;;;;;;5052388;28;20048;-61
2022/07/07 07:33:47;;;;;;;6.03;1.63;;;16.80;99.90;;;;;;5051378;28;20084;-61
2022/07/07 07:36:13;;;;;;;8.52;1.90;;;16.60;99.90;;;;;;5052292;28;20049;-61
2022/07/07 07:38:39;;;;;;;7.88;2.20;;;16.50;99.90;;;;;;5072853;28;20040;-60
2022/07/07 07:41:11;;;;;;;5.38;1.40;;;16.80;99.90;;;;;;5053722;28;20065;-62
2022/07/07 07:43:37;;;;;;;7.28;2.00;;;16.70;99.90;;;;;;5051523;28;20494;-63
2022/07/07 07:46:03;;;;;;;9.98;2.03;;;16.90;99.90;;;;;;5050854;28;20045;-62
2022/07/07 07:48:29;;;;;;;6.35;1.73;;;16.70;99.90;;;;;;5050698;28;20051;-63
2022/07/07 07:50:55;;;;;;;8.30;1.83;;;17.00;99.90;;;;;;5051448;28;20095;-62
2022/07/07 07:53:20;;;;;;;10.65;2.45;;;16.80;99.90;;;;;;5066406;28;20106;-63
2022/07/07 07:55:46;;;;;;;7.40;2.35;;;16.90;99.90;;;;;;5053772;28;20134;-62
2022/07/07 07:58:12;;;;;;;5.25;1.60;;;16.80;99.90;;;;;;5056983;28;20072;-62
2022/07/07 08:00:39;;;;;;;10.35;2.08;;;;;;;;;;5072809;28;20036;-62
2022/07/07 08:03:04;;;;;;;9.75;2.22;;;16.70;99.90;;;;;;5065450;28;20052;-63
2022/07/07 08:05:30;;;;;;;7.35;1.95;;;17.10;99.90;;;;;;5070770;28;20044;-62
2022/07/07 08:07:56;;;;;;;9.93;2.83;;;17.00;99.90;;;;;;5071617;28;20052;-62
2022/07/07 08:10:22;;;;;;;11.05;2.50;;;17.00;99.90;;;;;;5071308;28;20123;-63
2022/07/07 08:12:49;;;;;;;8.00;2.67;;;17.10;99.90;;;;;;5071685;28;20047;-61
2022/07/07 08:15:15;;;;;;;11.70;2.60;;;16.60;99.90;;;;;;5070999;28;20037;-61
2022/07/07 08:17:42;;;;;;;7.85;2.05;;;16.30;99.90;;;;;;5069891;28;20383;-62
2022/07/07 08:20:08;;;;;;;9.23;2.38;;;16.60;99.90;;;;;;5054602;28;20036;-62
2022/07/07 08:22:34;;;;;;;6.25;2.00;;;16.50;99.90;;;;;;5069139;28;20092;-62
2022/07/07 08:25:00;;;;;;;11.75;2.72;;;16.60;99.90;;;;;;5062896;28;20076;-62
2022/07/07 08:27:26;;;;;;;13.38;2.78;;;16.50;99.90;;;;;;5061195;28;20106;-63
2022/07/07 08:29:52;;;;;;;7.55;2.58;;;16.60;99.90;;;;;;5069174;28;20040;-63
2022/07/07 08:32:17;;;;;;;8.48;2.53;;;16.70;99.90;;;;;;5052540;28;20045;-62
2022/07/07 08:34:43;;;;;;;9.75;2.17;;;16.80;99.90;;;;;;5069114;28;20093;-61
2022/07/07 08:37:11;;;;;;;7.32;3.10;;;;;;;;;;5034947;28;20079;-62
2022/07/07 08:39:37;;;;;;;10.52;2.65;;;17.00;99.90;;;;;;5033789;28;20579;-61
2022/07/07 08:42:04;;;;;;;8.95;2.28;;;17.00;99.90;;;;;;5058623;28;20049;-61
2022/07/07 08:44:29;;;;;;;7.10;2.47;;;17.20;99.90;;;;;;5069661;28;20037;-60
2022/07/07 08:46:56;;;;;;;14.45;4.95;;;;;;;;;;5064571;28;20040;-61
2022/07/07 08:49:21;;;;;;;9.13;3.38;;;16.80;99.90;;;;;;5064165;28;20135;-61
2022/07/07 08:51:47;;;;;;;11.00;2.38;;;16.90;99.90;;;;;;5067002;28;20143;-61
2022/07/07 08:54:14;;;;;;;8.48;2.47;;;17.40;99.90;;;;;;5070088;28;20048;-60
2022/07/07 08:56:42;;;;;;;10.38;2.80;;;17.40;99.90;;;;;;5071738;28;20045;-62
2022/07/07 08:59:13;;;;;;;11.75;3.20;;;17.20;99.90;;;;;;5055047;28;20481;-60
2022/07/07 09:01:39;;;;;;;10.40;2.88;;;17.30;99.90;;;;;;5067791;28;20048;-61
2022/07/07 09:04:05;;;;;;;10.45;2.45;;;17.50;99.90;;;;;;5057049;28;20045;-61
2022/07/07 09:06:32;;;;;;;10.73;1.95;;;17.30;99.90;;;;;;5057974;28;20386;-74
2022/07/07 09:09:01;;;;;;;5.50;1.45;;;17.30;99.90;;;;;;5057394;28;20048;-70
2022/07/07 09:11:33;;;;;;;8.52;1.73;;;17.10;99.90;;;;;;5051340;28;20430;-73
2022/07/07 09:14:16;;;;;;;7.43;2.03;;;17.20;99.90;;;;;;5053878;28;20048;-73
2022/07/07 09:16:42;;;;;;;7.22;1.88;;;17.20;99.90;;;;;;5051847;28;20081;-75
2022/07/07 09:19:21;;;;;;;4.68;1.40;;;;;;;;;;5051138;28;20048;-76
2022/07/07 09:21:48;;;;;;;6.60;1.52;;;17.50;99.90;;;;;;5023263;28;1084856;-74
2022/07/07 09:24:14;;;;;;;8.00;1.98;;;17.70;99.90;;;;;;5049619;28;20418;-74
2022/07/07 09:26:44;;;;;;;5.28;1.35;;;;;;;;;;5051728;28;20045;-75
2022/07/07 09:29:17;;;;;;;7.40;1.60;;;18.00;99.90;;;;;;5059852;28;20045;-73
2022/07/07 09:32:04;;;;;;;8.10;2.17;;;17.90;99.90;;;;;;5064696;28;20036;-76
2022/07/07 09:34:36;;;;;;;4.72;1.17;;;17.70;99.90;;;;;;5051798;28;20467;-73
2022/07/07 09:39:57;;;;;;;6.20;1.13;;;17.30;99.90;;;;;;5053073;28;20046;-77
2022/07/07 09:42:27;;;;;;;6.20;1.50;;;17.20;99.90;;;;;;5065243;28;20037;-77
2022/07/07 09:45:10;;;;;;;9.02;2.17;;;;;;;;;;5061311;28;20047;-80
2022/07/07 09:47:36;;;;;;;8.68;2.10;;;17.10;99.90;;;;;;5072943;28;20047;-79
2022/07/07 09:50:09;;;;;;;10.38;2.20;;;17.10;99.90;;;;;;5048235;28;20033;-75
2022/07/07 09:52:45;;;;;;;6.88;1.70;;;17.60;99.90;;;;;;5038213;28;20040;-75
2022/07/07 09:55:12;;;;;;;7.30;2.03;;;17.20;99.90;;;;;;5070447;28;20044;-75
2022/07/07 09:57:39;;;;;;;11.27;2.90;;;17.10;99.90;;;;;;5049739;28;20472;-75
2022/07/07 10:00:07;;;;;;;15.20;2.88;;;16.90;99.90;;;;;;5049998;28;20037;-72
2022/07/07 10:02:35;;;;;;;10.70;3.00;;;16.80;99.90;;;;;;5053411;28;20436;-74
2022/07/07 10:05:01;;;;;;;11.57;4.47;;;16.80;99.90;;;;;;5056481;28;20489;-72
2022/07/07 10:07:29;;;;;;;9.82;2.85;;;16.70;99.90;;;;;;5048510;28;20033;-73
2022/07/07 10:09:58;;;;;;;14.45;2.53;;;16.70;99.90;;;;;;5049793;28;20041;-73
2022/07/07 10:12:26;;;;;;;11.43;2.10;;;16.70;99.90;;;;;;5049466;28;20045;-72
2022/07/07 10:15:03;;;;;;;10.55;2.30;;;16.80;99.90;;;;;;5055333;28;20052;-72
2022/07/07 10:17:30;;;;;;;12.13;3.40;;;16.80;99.90;;;;;;5065976;28;20047;-74
2022/07/07 10:19:57;;;;;;;14.48;3.15;;;17.00;99.90;;;;;;5069398;28;20080;-73
2022/07/07 10:22:29;;;;;;;8.90;2.38;;;16.90;99.90;;;;;;5069335;28;20056;-71
2022/07/07 10:24:57;;;;;;;10.98;2.53;;;17.10;99.90;;;;;;5059568;28;20498;-73
2022/07/07 10:27:26;;;;;;;19.55;4.00;;;17.00;99.90;;;;;;5049422;28;20045;-72
2022/07/07 10:29:56;;;;;;;16.85;3.80;;;17.50;99.90;;;;;;5049483;28;20123;-70
2022/07/07 10:32:40;;;;;;;11.35;3.05;;;17.20;99.90;;;;;;5065080;28;20037;-70
2022/07/07 10:35:12;;;;;;;15.02;4.30;;;16.70;99.90;;;;;;5064474;28;20059;-73
2022/07/07 10:37:53;;;;;;;12.85;2.45;;;17.00;99.90;;;;;;5071803;28;20448;-71
2022/07/07 10:40:27;;;;;;;14.50;3.95;;;16.90;99.90;;;;;;5071392;28;20043;-72
2022/07/07 10:43:29;;;;;;;14.13;3.40;;;17.10;99.90;;;;;;5069984;28;20036;-72
2022/07/07 10:45:56;;;;;;;12.10;3.67;;;17.20;99.90;;;;;;5071443;28;20041;-73
2022/07/07 10:48:44;;;;;;;15.18;3.58;;;17.10;99.90;;;;;;5071033;28;20033;-73
2022/07/07 10:51:24;;;;;;;10.32;2.70;;;17.30;99.90;;;;;;5069596;28;20056;-74
2022/07/07 10:54:06;;;;;;;13.70;3.72;;;17.50;99.90;;;;;;5072340;28;20040;-77
2022/07/07 10:56:50;;;;;;;12.68;2.95;;;17.40;99.90;;;;;;5054216;28;20036;-77
2022/07/07 10:59:17;;;;;;;15.88;3.35;;;17.50;99.90;;;;;;5071904;28;20374;-76
2022/07/07 11:02:01;;;;;;;15.60;3.15;;;17.40;99.90;;;;;;5072144;28;20040;-75
2022/07/07 11:04:41;;;;;;;13.73;4.03;;;17.40;99.90;;;;;;5071625;28;20115;-74
2022/07/07 11:07:16;;;;;;;12.23;2.50;;;17.30;99.90;;;;;;5054078;28;20080;-74
2022/07/07 11:10:05;;;;;;;9.05;2.90;;;17.10;99.90;;;;;;5071071;28;20515;-75
2022/07/07 11:12:35;;;;;;;15.32;3.08;;;17.40;99.90;;;;;;5071440;28;20040;-77
2022/07/07 11:15:22;;;;;;;13.65;3.13;;;17.50;99.90;;;;;;5071824;28;20444;-75
2022/07/07 11:17:56;;;;;;;12.60;2.42;;;17.30;99.90;;;;;;5070953;28;20503;-76
2022/07/07 11:20:25;;;;;;;10.65;2.47;;;17.50;99.90;;;;;;5070934;28;20036;-73
2022/07/07 11:22:52;;;;;;;11.38;2.90;;;17.30;99.90;;;;;;5070419;28;20060;-75
2022/07/07 11:25:20;;;;;;;13.23;2.63;;;16.90;99.90;;;;;;5071186;28;20485;-74
2022/07/07 11:27:48;;;;;;;12.95;2.75;;;17.20;99.90;;;;;;5070751;28;20060;-77
2022/07/07 11:30:14;;;;;;;10.10;2.13;;;17.10;99.90;;;;;;5070523;28;20052;-73
2022/07/07 11:32:42;;;;;;;11.43;3.20;;;16.60;99.90;;;;;;5071228;28;20040;-74
2022/07/07 11:35:10;;;;;;;15.77;3.53;;;16.80;99.90;;;;;;5070525;28;20040;-73
2022/07/07 11:37:38;;;;;;;13.15;2.70;;;16.90;99.90;;;;;;5072158;28;20139;-72
2022/07/07 11:40:21;;;;;;;21.20;4.90;;;16.50;99.90;;;;;;5070956;28;20048;-76
2022/07/07 11:42:47;;;;;;;10.20;4.00;;;16.90;99.90;;;;;;5070477;28;20041;-76
2022/07/07 11:45:20;;;;;;;13.10;3.30;;;16.50;99.90;;;;;;5071490;28;20040;-79
2022/07/07 11:47:47;;;;;;;14.32;4.05;;;16.70;99.90;;;;;;5069588;28;20055;-79
2022/07/07 11:50:12;;;;;;;15.18;3.65;;;16.60;99.90;;;;;;5070386;28;20056;-79
2022/07/07 11:52:45;;;;;;;13.20;3.50;;;16.70;99.90;;;;;;5070511;28;20044;-73
2022/07/07 11:55:12;;;;;;;14.93;3.35;;;16.40;99.90;;;;;;5070648;28;20072;-74
2022/07/07 11:57:37;;;;;;;12.48;3.72;;;16.60;99.90;;;;;;5070388;28;20041;-73
2022/07/07 12:00:25;;;;;;;19.90;3.55;;;16.90;99.90;;;;;;5063532;28;20052;-68
2022/07/07 12:02:52;;;;;;;12.05;2.45;;;16.90;99.90;;;;;;5067383;28;20123;-69
2022/07/07 12:05:22;;;;;;;9.60;2.90;;;17.30;99.90;;;;;;5066777;28;20041;-68
2022/07/07 12:07:55;;;;;;;11.40;2.95;;;16.60;99.90;;;;;;5051598;28;20398;-68
2022/07/07 12:10:27;;;;;;;11.57;3.00;;;17.20;99.90;;;;;;5070726;28;20048;-66
2022/07/07 12:13:00;;;;;;;11.52;3.05;;;16.60;99.90;;;;;;5070728;28;20041;-66
2022/07/07 12:15:48;;;;;;;10.40;3.70;;;16.90;99.90;;;;;;5073498;28;20195;-72
2022/07/07 12:18:30;;;;;;;8.48;2.35;;;16.80;99.90;;;;;;5073564;28;20045;-75
2022/07/07 12:20:58;;;;;;;10.90;2.85;;;17.00;99.90;;;;;;5069616;28;20067;-73
2022/07/07 12:23:24;;;;;;;9.18;2.42;;;17.30;99.90;;;;;;5073103;28;20052;-69
2022/07/07 12:25:49;;;;;;;8.25;2.22;;;17.10;99.90;;;;;;5061411;28;20063;-71
2022/07/07 12:28:16;;;;;;;6.70;2.50;;;17.00;99.90;;;;;;5052020;28;20042;-69
2022/07/07 12:30:54;;;;;;;9.68;2.63;;;17.30;99.90;;;;;;5051718;28;20045;-69
2022/07/07 12:33:38;;;;;;;9.88;2.70;;;17.20;99.90;;;;;;5053069;28;20041;-71
2022/07/07 12:36:11;;;;;;;11.30;2.47;;;17.40;99.90;;;;;;5067739;28;20381;-72
2022/07/07 12:38:38;;;;;;;7.05;2.13;;;17.20;99.90;;;;;;5072320;28;20119;-72
2022/07/07 12:41:04;;;;;;;7.40;2.30;;;17.00;99.90;;;;;;5070940;28;20488;-72
2022/07/07 12:43:32;;;;;;;10.27;2.45;;;17.40;99.90;;;;;;5068615;28;20040;-69
2022/07/07 12:46:11;;;;;;;11.60;3.05;;;17.20;99.90;;;;;;5042105;28;20059;-69
2022/07/07 12:48:49;;;;;;;9.80;2.70;;;17.70;99.90;;;;;;5072187;28;20033;-71
2022/07/07 12:51:15;;;;;;;8.70;2.50;;;17.00;99.90;;;;;;5070212;28;20048;-70